Time;durP1;ratioP1;P1;durP2;ratioP2;P2;SDS_P1;SDS_P2;PMS_P1;PMS_P2;Temp;Humidity;BMP_temperature;BMP_pressure;BME280_temperature;BME280_humidity;BME280_pressure;Samples;Min_cycle;Max_cycle;Signal;HPM_P1;HPM_P2
2022/01/30 00:01:13;;;;;;;11.03;2.40;;;;;;;;;;4980434;28;20220;-65
2022/01/30 00:03:39;;;;;;;13.87;2.70;;;;;;;;;;4975448;28;20228;-65
2022/01/30 00:06:06;;;;;;;11.77;2.43;;;;;;;;;;4979506;28;20928;-65
2022/01/30 00:08:33;;;;;;;11.33;2.37;;;;;;;;;;4973179;28;20220;-65
2022/01/30 00:11:07;;;;;;;13.47;3.00;;;;;;;;;;4983685;28;20471;-65
2022/01/30 00:13:34;;;;;;;14.57;2.80;;;;;;;;;;4982991;28;20611;-65
2022/01/30 00:16:05;;;;;;;10.33;2.30;;;;;;;;;;4984612;28;24223;-65
2022/01/30 00:18:45;;;;;;;16.93;3.77;;;;;;;;;;4981652;28;20454;-65
2022/01/30 00:21:33;;;;;;;11.37;2.83;;;;;;;;;;4981371;28;20216;-65
2022/01/30 00:26:30;;;;;;;8.83;1.80;;;;;;;;;;4976709;28;20224;-66
2022/01/30 00:28:56;;;;;;;13.93;2.70;;;;;;;;;;4973255;28;20244;-66
2022/01/30 00:31:25;;;;;;;12.00;2.57;;;;;;;;;;4975457;28;20478;-65
2022/01/30 00:34:11;;;;;;;11.70;2.60;;;;;;;;;;4981874;28;20455;-66
2022/01/30 00:36:38;;;;;;;7.67;1.87;;;;;;;;;;4983547;28;20533;-66
2022/01/30 00:39:05;;;;;;;10.37;2.70;;;;;;;;;;4956980;28;20307;-66
2022/01/30 00:41:33;;;;;;;8.73;2.30;;;;;;;;;;4957433;28;20236;-66
2022/01/30 00:44:01;;;;;;;19.97;2.73;;;;;;;;;;4971675;28;20462;-66
2022/01/30 00:46:27;;;;;;;13.63;3.03;;;;;;;;;;4981189;28;20236;-66
2022/01/30 00:48:54;;;;;;;19.27;3.10;;;;;;;;;;4979289;28;20220;-66
2022/01/30 00:51:21;;;;;;;12.17;2.23;;;;;;;;;;4981777;28;20232;-66
2022/01/30 00:53:47;;;;;;;9.67;1.93;;;;;;;;;;4942483;28;20700;-66
2022/01/30 00:56:14;;;;;;;12.63;2.73;;;;;;;;;;4967849;28;20245;-66
2022/01/30 00:58:41;;;;;;;17.30;3.37;;;;;;;;;;4983492;28;20243;-66
2022/01/30 01:01:09;;;;;;;8.30;2.37;;;;;;;;;;4979636;28;20263;-66
2022/01/30 01:03:36;;;;;;;14.50;2.73;;;;;;;;;;4958002;28;20723;-66
2022/01/30 01:37:56;;;;;;;10.87;2.40;;;;;;;;;;4968998;28;21049;-65
2022/01/30 01:40:23;;;;;;;16.40;2.93;;;;;;;;;;4977141;28;20235;-65
2022/01/30 01:42:49;;;;;;;11.33;2.70;;;;;;;;;;4980654;28;20296;-65
2022/01/30 01:45:21;;;;;;;13.43;2.07;;;;;;;;;;4981357;28;23008;-65
2022/01/30 01:47:48;;;;;;;15.63;3.23;;;;;;;;;;4980808;28;20252;-66
2022/01/30 01:50:37;;;;;;;9.77;2.27;;;;;;;;;;4982430;28;20459;-65
2022/01/30 01:53:07;;;;;;;9.47;2.43;;;;;;;;;;4958361;28;20232;-65
2022/01/30 01:55:34;;;;;;;21.20;3.27;;;;;;;;;;4977669;28;20246;-67
2022/01/30 01:58:01;;;;;;;18.97;2.77;;;;;;;;;;4960582;28;20239;-65
2022/01/30 02:00:59;;;;;;;11.83;2.27;;;;;;;;;;4975531;28;20216;-65
2022/01/30 02:03:27;;;;;;;14.47;2.40;;;;;;;;;;4977583;28;20587;-65
2022/01/30 02:05:57;;;;;;;16.33;3.17;;;;;;;;;;4982486;28;20572;-65
2022/01/30 02:08:43;;;;;;;14.43;3.37;;;;;;;;;;4962438;28;20243;-65
2022/01/30 02:13:51;;;;;;;12.27;2.03;;;;;;;;;;4974383;28;20777;-65
2022/01/30 02:27:24;;;;;;;10.60;2.07;;;;;;;;;;4980428;28;20228;-66
2022/01/30 02:29:51;;;;;;;19.17;3.20;;;;;;;;;;4970606;28;20575;-66
2022/01/30 02:32:18;;;;;;;12.83;2.60;;;;;;;;;;4980888;28;20691;-66
2022/01/30 02:34:45;;;;;;;11.93;2.40;;;;;;;;;;4980037;28;20872;-65
2022/01/30 02:37:13;;;;;;;16.57;2.43;;;;;;;;;;4979694;28;20240;-66
2022/01/30 02:39:40;;;;;;;13.97;2.27;;;;;;;;;;4942337;28;20306;-66
2022/01/30 02:42:07;;;;;;;10.37;2.03;;;;;;;;;;4980243;28;20258;-65
2022/01/30 02:44:42;;;;;;;6.33;1.60;;;;;;;;;;4956931;28;20453;-65
2022/01/30 02:47:23;;;;;;;14.57;2.70;;;;;;;;;;4944167;28;20454;-65
2022/01/30 02:52:37;;;;;;;5.87;1.50;;;;;;;;;;4963304;28;20811;-65
2022/01/30 02:55:04;;;;;;;7.43;1.60;;;;;;;;;;4980502;28;20235;-65
2022/01/30 02:57:31;;;;;;;6.67;1.00;;;;;;;;;;4957778;28;20843;-65
2022/01/30 02:59:57;;;;;;;3.00;0.70;;;;;;;;;;4942128;28;20243;-65
2022/01/30 03:02:25;;;;;;;7.60;1.00;;;;;;;;;;4967498;28;20223;-65
2022/01/30 03:04:53;;;;;;;5.23;0.93;;;;;;;;;;4983623;28;20874;-65
2022/01/30 03:07:59;;;;;;;1.67;0.50;;;;;;;;;;4983130;28;20996;-65
2022/01/30 03:22:48;;;;;;;2.90;0.63;;;;;;;;;;4966344;28;20487;-65
2022/01/30 03:26:01;;;;;;;7.17;1.40;;;;;;;;;;4869105;29;20469;-65
2022/01/30 03:28:51;;;;;;;6.67;1.30;;;;;;;;;;4883950;29;20460;-66
2022/01/30 03:31:24;;;;;;;10.53;1.73;;;;;;;;;;4868487;29;20509;-65
2022/01/30 03:33:51;;;;;;;11.63;2.47;;;;;;;;;;4872482;29;21451;-66
2022/01/30 03:36:27;;;;;;;14.50;2.17;;;;;;;;;;4869753;29;20473;-65
2022/01/30 03:38:54;;;;;;;9.03;1.90;;;;;;;;;;4854026;29;20589;-67
2022/01/30 03:41:20;;;;;;;14.37;2.80;;;;;;;;;;4884699;29;20468;-65
2022/01/30 03:43:47;;;;;;;15.07;3.03;;;;;;;;;;4864649;29;20458;-66
2022/01/30 03:46:17;;;;;;;17.07;3.10;;;;;;;;;;4870664;29;20463;-66
2022/01/30 03:48:53;;;;;;;16.23;3.50;;;;;;;;;;4856433;29;20384;-65
2022/01/30 03:51:30;;;;;;;16.63;2.57;;;;;;;;;;4877706;29;20543;-65
2022/01/30 03:54:08;;;;;;;19.07;3.60;;;;;;;;;;4868646;29;20459;-66
2022/01/30 03:56:34;;;;;;;23.87;4.63;;;;;;;;;;4870433;29;21117;-65
2022/01/30 03:59:02;;;;;;;21.10;2.47;;;;;;;;;;4853990;29;20566;-65
2022/01/30 04:01:30;;;;;;;15.83;3.20;;;;;;;;;;4851200;29;20480;-66
2022/01/30 04:03:58;;;;;;;21.10;2.63;;;;;;;;;;4959851;28;20481;-65
2022/01/30 04:06:25;;;;;;;15.97;2.93;;;;;;;;;;4978509;28;20783;-66
2022/01/30 04:08:53;;;;;;;16.90;3.40;;;;;;;;;;4982936;28;20745;-65
2022/01/30 04:12:15;;;;;;;10.30;1.30;;;;;;;;;;4902496;29;20451;-65
2022/01/30 04:15:29;;;;;;;8.57;1.43;;;;;;;;;;4790479;29;20483;-65
2022/01/30 04:22:01;;;;;;;5.10;0.90;;;;;;;;;;4819580;29;20463;-65
2022/01/30 04:28:52;;;;;;;3.67;1.13;;;;;;;;;;4844486;29;20502;-66
2022/01/30 04:35:30;;;;;;;5.80;1.00;;;;;;;;;;4864748;29;20552;-66
2022/01/30 05:00:08;;;;;;;11.37;3.00;;;;;;;;;;4972316;28;20462;-65
2022/01/30 05:08:19;;;;;;;10.37;2.37;;;;;;;;;;4970411;28;20461;-65
2022/01/30 05:11:18;;;;;;;17.80;2.83;;;;;;;;;;4916670;28;20460;-64
2022/01/30 05:14:04;;;;;;;16.17;3.47;;;;;;;;;;4977109;28;20504;-65
2022/01/30 05:16:54;;;;;;;16.37;3.07;;;;;;;;;;4963359;28;20532;-65
2022/01/30 05:19:44;;;;;;;13.77;2.03;;;;;;;;;;4957652;28;20466;-66
2022/01/30 05:22:24;;;;;;;22.90;3.20;;;;;;;;;;4945429;28;21032;-65
2022/01/30 05:25:00;;;;;;;16.87;2.80;;;;;;;;;;4976129;28;20466;-65
2022/01/30 05:27:36;;;;;;;8.20;1.93;;;;;;;;;;4972599;28;20521;-66
2022/01/30 05:30:18;;;;;;;19.80;3.10;;;;;;;;;;4940021;28;20961;-65
2022/01/30 05:33:03;;;;;;;10.63;2.53;;;;;;;;;;4980584;28;20471;-65
2022/01/30 05:35:49;;;;;;;24.00;5.23;;;;;;;;;;4978645;28;20231;-65
2022/01/30 05:38:33;;;;;;;10.43;2.70;;;;;;;;;;4964980;28;20686;-65
2022/01/30 05:41:19;;;;;;;8.77;2.07;;;;;;;;;;4979840;28;20467;-66
2022/01/30 05:44:17;;;;;;;21.07;3.60;;;;;;;;;;4954519;28;20977;-65
2022/01/30 05:47:02;;;;;;;18.17;3.03;;;;;;;;;;4979314;28;20513;-66
2022/01/30 05:49:42;;;;;;;14.73;4.30;;;;;;;;;;4958433;28;20474;-65
2022/01/30 05:52:15;;;;;;;10.57;2.63;;;;;;;;;;4948805;28;20827;-65
2022/01/30 05:55:08;;;;;;;23.60;4.20;;;;;;;;;;4973795;28;20463;-65
2022/01/30 05:57:34;;;;;;;19.90;4.23;;;;;;;;;;4979745;28;20471;-64
2022/01/30 06:00:02;;;;;;;14.57;3.33;;;;;;;;;;4977513;28;20945;-65
2022/01/30 06:02:48;;;;;;;18.77;2.97;;;;;;;;;;4957747;28;20482;-65
2022/01/30 06:05:18;;;;;;;9.83;2.60;;;;;;;;;;4942735;28;20489;-68
2022/01/30 06:07:53;;;;;;;28.63;5.90;;;;;;;;;;4943228;28;20739;-66
2022/01/30 06:10:21;;;;;;;25.13;5.07;;;;;;;;;;4970818;28;20329;-67
2022/01/30 06:12:48;;;;;;;16.50;3.43;;;;;;;;;;4938763;28;20233;-66
2022/01/30 06:15:15;;;;;;;21.97;4.53;;;;;;;;;;4949106;28;20963;-66
2022/01/30 06:17:42;;;;;;;16.37;2.57;;;;;;;;;;4959477;28;20463;-68
2022/01/30 06:20:28;;;;;;;14.37;3.03;;;;;;;;;;4970620;28;21544;-66
2022/01/30 06:23:13;;;;;;;13.60;2.70;;;;;;;;;;4959910;28;20877;-66
2022/01/30 06:25:58;;;;;;;16.43;4.00;;;;;;;;;;4973339;28;20448;-66
2022/01/30 06:28:44;;;;;;;8.50;1.63;;;;;;;;;;4968252;28;20583;-66
2022/01/30 06:31:10;;;;;;;12.50;1.73;;;;;;;;;;4962138;28;20969;-67
2022/01/30 06:33:56;;;;;;;13.80;2.70;;;;;;;;;;4968278;28;20702;-67
2022/01/30 06:36:25;;;;;;;17.17;3.83;;;;;;;;;;4949115;28;20710;-66
2022/01/30 06:39:06;;;;;;;12.60;1.83;;;;;;;;;;4970417;28;20474;-67
2022/01/30 06:41:32;;;;;;;11.20;2.23;;;;;;;;;;4968624;28;20454;-69
2022/01/30 06:44:28;;;;;;;10.73;2.47;;;;;;;;;;4909956;28;20471;-68
2022/01/30 06:47:13;;;;;;;13.53;3.80;;;;;;;;;;4966833;28;20236;-66
2022/01/30 06:49:58;;;;;;;11.00;2.33;;;;;;;;;;4963299;28;20505;-65
2022/01/30 06:52:48;;;;;;;13.13;2.83;;;;;;;;;;4952823;28;20881;-67
2022/01/30 06:55:34;;;;;;;10.33;2.20;;;;;;;;;;4973233;28;20254;-67
2022/01/30 06:58:30;;;;;;;10.60;1.70;;;;;;;;;;4884665;28;233693;-65
2022/01/30 07:01:29;;;;;;;13.63;2.33;;;;;;;;;;4926589;28;20518;-67
2022/01/30 07:03:56;;;;;;;10.83;1.90;;;;;;;;;;4954536;28;20466;-65
2022/01/30 07:06:49;;;;;;;5.57;1.50;;;;;;;;;;4969388;28;20224;-66
2022/01/30 07:09:17;;;;;;;14.97;2.57;;;;;;;;;;4969368;28;20473;-66
2022/01/30 07:11:44;;;;;;;11.57;2.63;;;;;;;;;;4972572;28;20510;-67
2022/01/30 07:14:10;;;;;;;8.67;2.53;;;;;;;;;;4966360;28;20252;-67
2022/01/30 07:16:37;;;;;;;12.43;2.23;;;;;;;;;;4954546;28;20330;-67
2022/01/30 07:19:04;;;;;;;11.60;2.20;;;;;;;;;;4969212;28;20565;-67
2022/01/30 07:21:30;;;;;;;9.77;1.93;;;;;;;;;;4951238;28;220924;-68
2022/01/30 07:23:57;;;;;;;7.73;1.90;;;;;;;;;;4970991;28;20228;-66
2022/01/30 07:26:24;;;;;;;7.20;1.40;;;;;;;;;;4965211;28;20827;-66
2022/01/30 07:28:50;;;;;;;9.47;1.80;;;;;;;;;;4971507;28;20501;-67
2022/01/30 07:31:17;;;;;;;8.70;2.20;;;;;;;;;;4971789;28;20286;-66
2022/01/30 07:33:44;;;;;;;7.50;2.10;;;;;;;;;;4975683;28;20473;-66
2022/01/30 07:36:11;;;;;;;12.70;2.30;;;;;;;;;;4978750;28;20473;-66
2022/01/30 07:38:38;;;;;;;8.87;2.00;;;;;;;;;;4960662;28;20471;-66
2022/01/30 07:41:05;;;;;;;10.53;1.73;;;;;;;;;;4962075;28;20302;-67
2022/01/30 07:43:31;;;;;;;9.57;2.00;;;;;;;;;;4970355;28;20489;-64
2022/01/30 07:46:03;;;;;;;6.80;1.67;;;;;;;;;;4951218;28;20476;-68
2022/01/30 07:48:31;;;;;;;9.00;1.63;;;;;;;;;;4937646;28;20467;-66
2022/01/30 07:50:57;;;;;;;7.27;1.50;;;;;;;;;;4957503;28;20640;-65
2022/01/30 07:53:24;;;;;;;7.83;1.03;;;;;;;;;;4964674;28;20229;-66
2022/01/30 07:55:51;;;;;;;5.40;0.80;;;;;;;;;;4968247;28;20482;-68
2022/01/30 07:58:17;;;;;;;11.00;4.57;;;;;;;;;;4964953;28;20264;-66
2022/01/30 08:00:44;;;;;;;9.77;1.93;;;;;;;;;;4968545;28;20470;-65
2022/01/30 08:03:12;;;;;;;10.20;1.70;;;;;;;;;;4962292;28;20668;-66
2022/01/30 08:05:38;;;;;;;7.60;1.30;;;;;;;;;;4967424;28;20234;-67
2022/01/30 08:08:05;;;;;;;9.40;1.53;;;;;;;;;;4950781;28;20271;-69
2022/01/30 08:10:33;;;;;;;4.63;0.80;;;;;;;;;;4953216;28;20475;-68
2022/01/30 08:13:01;;;;;;;9.17;1.43;;;;;;;;;;4967628;28;21541;-68
2022/01/30 08:15:31;;;;;;;10.13;2.40;;;;;;;;;;4961140;28;20252;-68
2022/01/30 08:18:06;;;;;;;9.43;1.60;;;;;;;;;;4951326;28;20968;-68
2022/01/30 08:20:34;;;;;;;4.57;1.83;;;;;;;;;;4969307;28;20465;-65
2022/01/30 08:23:06;;;;;;;9.17;1.40;;;;;;;;;;4971719;28;20989;-66
2022/01/30 08:25:33;;;;;;;3.17;0.93;;;;;;;;;;4948008;28;20952;-68
2022/01/30 08:28:00;;;;;;;2.50;0.70;;;;;;;;;;4967079;28;20486;-65
2022/01/30 08:30:28;;;;;;;6.23;1.20;;;;;;;;;;4956948;28;216189;-68
2022/01/30 08:32:54;;;;;;;7.27;0.73;;;;;;;;;;4919272;28;21208;-71
2022/01/30 08:35:21;;;;;;;4.60;1.00;;;;;;;;;;4948290;28;217428;-70
2022/01/30 08:37:48;;;;;;;6.70;1.00;;;;;;;;;;4955954;28;220945;-69
2022/01/30 08:40:16;;;;;;;2.07;0.90;;;;;;;;;;4959318;28;20483;-70
2022/01/30 08:42:43;;;;;;;2.60;0.80;;;;;;;;;;4956739;28;25734;-69
2022/01/30 08:45:12;;;;;;;7.00;1.00;;;;;;;;;;4943510;28;37296;-69
2022/01/30 08:47:42;;;;;;;4.30;0.90;;;;;;;;;;4946929;28;21770;-69
2022/01/30 08:50:09;;;;;;;2.73;0.90;;;;;;;;;;4948611;28;20535;-67
2022/01/30 08:52:36;;;;;;;2.00;0.60;;;;;;;;;;4964751;28;20970;-67
2022/01/30 08:55:05;;;;;;;2.53;0.77;;;;;;;;;;4964406;28;20517;-67
2022/01/30 08:57:31;;;;;;;2.10;0.40;;;;;;;;;;4967265;28;20865;-69
2022/01/30 08:59:58;;;;;;;4.77;1.37;;;;;;;;;;4958056;28;23928;-67
2022/01/30 09:02:25;;;;;;;3.00;1.10;;;;;;;;;;4964457;28;220178;-67
2022/01/30 09:04:52;;;;;;;3.40;0.70;;;;;;;;;;4938212;28;20296;-66
2022/01/30 09:07:19;;;;;;;2.97;1.00;;;;;;;;;;4964282;28;20472;-68
2022/01/30 09:09:46;;;;;;;4.53;0.73;;;;;;;;;;4954488;28;20467;-67
2022/01/30 09:12:13;;;;;;;2.70;0.80;;;;;;;;;;4937112;28;23118;-68
2022/01/30 09:14:42;;;;;;;3.27;1.00;;;;;;;;;;4958740;28;20950;-69
2022/01/30 09:17:13;;;;;;;3.67;1.00;;;;;;;;;;4954360;28;20480;-69
2022/01/30 09:19:46;;;;;;;2.43;0.70;;;;;;;;;;4941046;28;21627;-69
2022/01/30 09:22:15;;;;;;;2.77;0.90;;;;;;;;;;4961586;28;20478;-68
2022/01/30 09:24:43;;;;;;;2.50;1.53;;;;;;;;;;4956242;28;73885;-68
2022/01/30 09:27:11;;;;;;;2.03;0.60;;;;;;;;;;4924108;28;124633;-68
2022/01/30 09:29:39;;;;;;;2.13;0.70;;;;;;;;;;4945672;28;105469;-69
2022/01/30 09:32:07;;;;;;;2.40;0.93;;;;;;;;;;4955084;28;20598;-69
2022/01/30 09:34:34;;;;;;;2.67;1.13;;;;;;;;;;4965001;28;20489;-69
2022/01/30 09:37:02;;;;;;;4.83;0.83;;;;;;;;;;4967508;28;20519;-68
2022/01/30 09:39:30;;;;;;;3.53;1.37;;;;;;;;;;4962557;28;20225;-68
2022/01/30 09:41:57;;;;;;;0.70;0.40;;;;;;;;;;4965705;28;20309;-67
2022/01/30 09:44:24;;;;;;;1.13;0.80;;;;;;;;;;4960389;28;20938;-68
2022/01/30 09:46:52;;;;;;;1.10;0.73;;;;;;;;;;4981682;28;20462;-68
2022/01/30 09:49:25;;;;;;;2.23;0.90;;;;;;;;;;4977862;28;20467;-68
2022/01/30 09:51:53;;;;;;;4.10;0.77;;;;;;;;;;4973911;28;20546;-68
2022/01/30 09:54:21;;;;;;;1.37;0.50;;;;;;;;;;4968539;28;20886;-71
2022/01/30 09:56:48;;;;;;;0.73;0.30;;;;;;;;;;4958317;28;20451;-68
2022/01/30 09:59:16;;;;;;;2.13;1.00;;;;;;;;;;4969075;28;20474;-71
2022/01/30 10:01:43;;;;;;;4.33;1.37;;;;;;;;;;4979349;28;20458;-68
2022/01/30 10:04:10;;;;;;;3.60;1.00;;;;;;;;;;4965699;28;22269;-68
2022/01/30 10:06:59;;;;;;;4.23;1.57;;;;;;;;;;4959585;28;20479;-68
2022/01/30 10:09:28;;;;;;;2.00;1.20;;;;;;;;;;4951581;28;20546;-68
2022/01/30 10:12:13;;;;;;;1.80;0.73;;;;;;;;;;4977733;28;20557;-69
2022/01/30 10:14:53;;;;;;;1.90;1.03;;;;;;;;;;4979245;28;24312;-68
2022/01/30 10:17:33;;;;;;;3.60;1.90;;;;;;;;;;4978919;28;24168;-68
2022/01/30 10:20:22;;;;;;;5.23;2.10;;;;;;;;;;4978650;28;21141;-67
2022/01/30 10:22:53;;;;;;;5.07;2.27;;;;;;;;;;4962334;28;20463;-68
2022/01/30 10:25:27;;;;;;;4.00;1.70;;;;;;;;;;4959978;28;20447;-69
2022/01/30 10:28:07;;;;;;;3.23;0.97;;;;;;;;;;4962795;28;222309;-68
2022/01/30 10:30:47;;;;;;;8.37;3.90;;;;;;;;;;4953697;28;20255;-68
2022/01/30 10:33:15;;;;;;;2.93;1.20;;;;;;;;;;4972590;28;20500;-68
2022/01/30 10:35:45;;;;;;;7.30;2.47;;;;;;;;;;4970347;28;20448;-69
2022/01/30 10:38:23;;;;;;;4.30;1.47;;;;;;;;;;4955328;28;20871;-68
2022/01/30 10:41:10;;;;;;;4.40;1.90;;;;;;;;;;4964503;28;20560;-69
2022/01/30 10:43:56;;;;;;;2.53;1.53;;;;;;;;;;4982301;28;21778;-68
2022/01/30 10:46:23;;;;;;;3.77;1.63;;;;;;;;;;4955701;28;20456;-68
2022/01/30 10:48:54;;;;;;;2.63;1.57;;;;;;;;;;4970341;28;20224;-69
2022/01/30 10:51:20;;;;;;;3.10;0.83;;;;;;;;;;4943716;28;20456;-68
2022/01/30 10:53:49;;;;;;;1.87;1.13;;;;;;;;;;4960932;28;20464;-68
2022/01/30 10:56:19;;;;;;;3.13;1.73;;;;;;;;;;4958884;28;20691;-68
2022/01/30 10:59:04;;;;;;;7.43;1.00;;;;;;;;;;4959703;28;20464;-68
2022/01/30 11:01:31;;;;;;;2.97;0.70;;;;;;;;;;4964110;28;20466;-67
2022/01/30 11:04:00;;;;;;;4.77;1.20;;;;;;;;;;4972878;28;20459;-69
2022/01/30 11:06:27;;;;;;;2.37;0.80;;;;;;;;;;4951144;28;20471;-68
2022/01/30 11:08:54;;;;;;;3.10;0.70;;;;;;;;;;4974978;28;20470;-68
2022/01/30 11:19:12;;;;;;;1.43;1.00;;;;;;;;;;4958356;28;20993;-68
2022/01/30 11:21:39;;;;;;;2.60;0.73;;;;;;;;;;4950572;28;20479;-69
2022/01/30 11:24:07;;;;;;;2.47;0.93;;;;;;;;;;4945317;28;20486;-67
2022/01/30 11:26:34;;;;;;;5.17;0.90;;;;;;;;;;4952113;28;20455;-67
2022/01/30 11:29:01;;;;;;;2.83;0.60;;;;;;;;;;4954141;28;20219;-68
2022/01/30 11:31:27;;;;;;;2.87;0.70;;;;;;;;;;4936101;28;21269;-68
2022/01/30 11:33:54;;;;;;;2.33;1.00;;;;;;;;;;4955347;28;20232;-68
2022/01/30 11:36:21;;;;;;;3.47;1.03;;;;;;;;;;4947249;28;20463;-69
2022/01/30 11:38:48;;;;;;;2.37;0.80;;;;;;;;;;4965312;28;34755;-68
2022/01/30 11:41:16;;;;;;;2.63;0.40;;;;;;;;;;4945735;28;20240;-68
2022/01/30 11:44:01;;;;;;;3.50;0.80;;;;;;;;;;4967851;28;20247;-68
2022/01/30 11:46:28;;;;;;;1.10;0.50;;;;;;;;;;4949508;28;20472;-69
2022/01/30 11:49:11;;;;;;;2.63;0.90;;;;;;;;;;4963757;28;20777;-68
2022/01/30 11:51:48;;;;;;;1.20;0.70;;;;;;;;;;4950437;28;51418;-68
2022/01/30 11:54:33;;;;;;;1.97;0.43;;;;;;;;;;4945583;28;20471;-69
2022/01/30 11:57:00;;;;;;;2.10;0.70;;;;;;;;;;4947411;28;20989;-68
2022/01/30 11:59:37;;;;;;;7.33;2.47;;;;;;;;;;4953334;28;231904;-68
2022/01/30 12:02:30;;;;;;;2.13;1.03;;;;;;;;;;4949835;28;20231;-70
2022/01/30 12:05:01;;;;;;;2.53;0.83;;;;;;;;;;4946939;28;20534;-70
2022/01/30 12:07:35;;;;;;;1.40;0.60;;;;;;;;;;4949483;28;20480;-69
2022/01/30 12:12:50;;;;;;;2.47;0.60;;;;;;;;;;4926159;28;20462;-67
2022/01/30 12:15:36;;;;;;;1.77;0.30;;;;;;;;;;4948144;28;20227;-70
2022/01/30 12:18:04;;;;;;;2.00;0.77;;;;;;;;;;4960346;28;21046;-69
2022/01/30 12:20:32;;;;;;;5.33;0.70;;;;;;;;;;4963773;28;20468;-70
2022/01/30 12:22:59;;;;;;;1.33;0.73;;;;;;;;;;4947449;28;20302;-70
2022/01/30 12:25:29;;;;;;;1.83;0.43;;;;;;;;;;4949518;28;20601;-73
2022/01/30 12:28:03;;;;;;;1.40;0.50;;;;;;;;;;4947084;28;20452;-69
2022/01/30 12:30:31;;;;;;;1.20;0.43;;;;;;;;;;4963510;28;20533;-69
2022/01/30 12:32:57;;;;;;;2.93;0.40;;;;;;;;;;4959371;28;220373;-70
2022/01/30 12:35:24;;;;;;;2.17;0.70;;;;;;;;;;4969692;28;20254;-68
2022/01/30 12:37:51;;;;;;;2.17;0.60;;;;;;;;;;4959223;28;20722;-69
2022/01/30 12:40:20;;;;;;;2.07;0.70;;;;;;;;;;4961765;28;21143;-69
2022/01/30 12:42:47;;;;;;;2.13;1.03;;;;;;;;;;4954902;28;20234;-70
2022/01/30 12:45:14;;;;;;;1.97;0.53;;;;;;;;;;4937825;28;20237;-68
2022/01/30 12:47:47;;;;;;;2.20;0.50;;;;;;;;;;4959544;28;20243;-67
2022/01/30 12:50:14;;;;;;;0.97;0.50;;;;;;;;;;4971318;28;20232;-69
2022/01/30 12:52:46;;;;;;;3.47;1.20;;;;;;;;;;4954520;28;20231;-68
2022/01/30 12:55:15;;;;;;;5.03;3.07;;;;;;;;;;4963846;28;20815;-68
2022/01/30 12:57:44;;;;;;;0.70;0.40;;;;;;;;;;4962439;28;20458;-68
2022/01/30 13:00:12;;;;;;;2.00;0.50;;;;;;;;;;4949284;28;20236;-68
2022/01/30 13:02:41;;;;;;;2.53;0.50;;;;;;;;;;4960940;28;20224;-68
2022/01/30 13:05:11;;;;;;;1.47;0.80;;;;;;;;;;4957633;28;20228;-67
2022/01/30 13:07:37;;;;;;;2.10;0.80;;;;;;;;;;4965191;28;20232;-68
2022/01/30 13:10:06;;;;;;;1.83;0.70;;;;;;;;;;4960908;28;20464;-68
2022/01/30 13:12:33;;;;;;;1.53;0.80;;;;;;;;;;4937905;28;20234;-68
2022/01/30 13:15:04;;;;;;;2.63;1.83;;;;;;;;;;4954858;28;20248;-68
2022/01/30 13:17:31;;;;;;;5.17;1.50;;;;;;;;;;4963853;28;20632;-68
2022/01/30 13:20:02;;;;;;;4.67;1.20;;;;;;;;;;4965068;28;20507;-68
2022/01/30 13:22:29;;;;;;;4.00;1.00;;;;;;;;;;4962820;28;20263;-68
2022/01/30 13:24:57;;;;;;;2.67;1.23;;;;;;;;;;4967875;28;20560;-68
2022/01/30 13:27:24;;;;;;;3.47;1.03;;;;;;;;;;4961959;28;20495;-69
2022/01/30 13:29:54;;;;;;;2.33;1.00;;;;;;;;;;4969046;28;21343;-68
2022/01/30 13:32:24;;;;;;;1.73;0.60;;;;;;;;;;4927547;28;20535;-70
2022/01/30 13:34:50;;;;;;;1.63;0.80;;;;;;;;;;4941308;28;20459;-68
2022/01/30 13:37:18;;;;;;;2.37;0.70;;;;;;;;;;4969041;28;20267;-68
2022/01/30 13:39:49;;;;;;;2.17;0.80;;;;;;;;;;4964215;28;20469;-67
2022/01/30 14:44:29;;;;;;;5.37;2.33;;;;;;;;;;4911188;28;20575;-66
2022/01/30 14:46:56;;;;;;;6.63;2.30;;;;;;;;;;4942901;28;20477;-66
2022/01/30 14:49:23;;;;;;;4.40;1.10;;;;;;;;;;4940287;28;20239;-66
2022/01/30 14:51:49;;;;;;;2.20;0.77;;;;;;;;;;4940918;28;20229;-66
2022/01/30 14:54:16;;;;;;;3.07;0.83;;;;;;;;;;4940028;28;20472;-66
2022/01/30 14:56:43;;;;;;;2.03;0.87;;;;;;;;;;4942103;28;20272;-66
2022/01/30 14:59:10;;;;;;;2.50;0.50;;;;;;;;;;4943452;28;20241;-66
2022/01/30 15:01:36;;;;;;;5.57;1.30;;;;;;;;;;4945718;28;20236;-66
2022/01/30 15:04:04;;;;;;;1.40;0.60;;;;;;;;;;4935452;28;20235;-66
2022/01/30 15:06:31;;;;;;;5.27;0.80;;;;;;;;;;4945071;28;20515;-68
2022/01/30 15:08:58;;;;;;;5.73;2.33;;;;;;;;;;4957213;28;20656;-66
2022/01/30 15:11:25;;;;;;;2.67;1.53;;;;;;;;;;4960839;28;20453;-66
2022/01/30 15:13:51;;;;;;;6.33;2.00;;;;;;;;;;4960478;28;20279;-66
2022/01/30 15:16:29;;;;;;;5.40;1.13;;;;;;;;;;4945664;28;20468;-66
2022/01/30 15:18:56;;;;;;;1.70;0.50;;;;;;;;;;4946342;28;20448;-66
2022/01/30 15:21:22;;;;;;;2.10;0.90;;;;;;;;;;4942026;28;20846;-66
2022/01/30 15:23:49;;;;;;;2.57;0.90;;;;;;;;;;4928541;28;21394;-68
2022/01/30 15:26:16;;;;;;;2.07;0.80;;;;;;;;;;4942056;28;20464;-65
2022/01/30 15:28:43;;;;;;;2.63;0.90;;;;;;;;;;4939237;28;20237;-66
2022/01/30 15:31:09;;;;;;;2.10;0.70;;;;;;;;;;4950819;28;21297;-66
2022/01/30 15:33:36;;;;;;;2.53;0.73;;;;;;;;;;4955573;28;20231;-65
2022/01/30 15:36:03;;;;;;;3.20;0.80;;;;;;;;;;4940902;28;20607;-65
2022/01/30 15:38:30;;;;;;;4.67;1.07;;;;;;;;;;4941294;28;20518;-65
2022/01/30 15:40:56;;;;;;;2.10;0.80;;;;;;;;;;4945189;28;20479;-65
2022/01/30 15:43:38;;;;;;;2.67;1.00;;;;;;;;;;4948514;28;20230;-65
2022/01/30 15:49:03;;;;;;;2.50;1.00;;;;;;;;;;4967450;28;20465;-65
2022/01/30 15:51:34;;;;;;;3.33;0.83;;;;;;;;;;4963774;28;20470;-66
2022/01/30 15:54:01;;;;;;;4.40;1.30;;;;;;;;;;4972359;28;20460;-65
2022/01/30 15:56:28;;;;;;;3.33;1.00;;;;;;;;;;4970115;28;20459;-65
2022/01/30 15:58:55;;;;;;;3.67;0.90;;;;;;;;;;4962687;28;20529;-66
2022/01/30 16:01:22;;;;;;;3.33;0.80;;;;;;;;;;4962590;28;20464;-65
2022/01/30 16:03:49;;;;;;;4.80;1.00;;;;;;;;;;4946120;28;20304;-66
2022/01/30 16:06:15;;;;;;;3.03;1.03;;;;;;;;;;4967516;28;20467;-66
2022/01/30 16:08:46;;;;;;;3.57;1.00;;;;;;;;;;4961372;28;20479;-66
2022/01/30 16:11:35;;;;;;;4.87;0.87;;;;;;;;;;4969142;28;20483;-68
2022/01/30 16:16:47;;;;;;;2.60;1.13;;;;;;;;;;4948474;28;21059;-67
2022/01/30 16:19:13;;;;;;;3.87;1.40;;;;;;;;;;4958959;28;21191;-65
2022/01/30 16:21:41;;;;;;;2.13;1.10;;;;;;;;;;4966848;28;20491;-67
2022/01/30 16:24:08;;;;;;;4.47;1.27;;;;;;;;;;4973203;28;20553;-66
2022/01/30 16:26:35;;;;;;;3.30;1.10;;;;;;;;;;4972611;28;20518;-66
2022/01/30 16:29:02;;;;;;;4.50;1.30;;;;;;;;;;4972037;28;20458;-65
2022/01/30 16:31:48;;;;;;;2.83;1.00;;;;;;;;;;4968438;28;20603;-66
2022/01/30 16:34:15;;;;;;;3.13;1.00;;;;;;;;;;4969683;28;20474;-66
2022/01/30 16:36:46;;;;;;;4.03;1.23;;;;;;;;;;4965700;28;20534;-65
2022/01/30 16:39:13;;;;;;;3.13;0.90;;;;;;;;;;4978954;28;20471;-65
2022/01/30 16:41:46;;;;;;;1.87;0.60;;;;;;;;;;4972955;28;20449;-66
2022/01/30 16:44:15;;;;;;;3.00;1.40;;;;;;;;;;4960482;28;20237;-65
2022/01/30 16:49:12;;;;;;;4.90;0.87;;;;;;;;;;4948293;28;20234;-65
2022/01/30 16:51:38;;;;;;;1.43;0.63;;;;;;;;;;4944145;28;20455;-65
2022/01/30 16:54:05;;;;;;;4.30;1.57;;;;;;;;;;4941353;28;20263;-65
2022/01/30 16:56:33;;;;;;;4.73;2.10;;;;;;;;;;4953032;28;20460;-65
2022/01/30 16:59:00;;;;;;;3.20;1.03;;;;;;;;;;4951800;28;20507;-65
2022/01/30 17:01:27;;;;;;;1.83;0.80;;;;;;;;;;4934124;28;20900;-65
2022/01/30 17:04:13;;;;;;;10.67;1.10;;;;;;;;;;4942920;28;20456;-66
2022/01/30 17:06:40;;;;;;;2.37;0.67;;;;;;;;;;4938513;28;20460;-66
2022/01/30 17:09:25;;;;;;;1.77;0.60;;;;;;;;;;4936395;28;20459;-67
2022/01/30 17:12:14;;;;;;;1.40;0.50;;;;;;;;;;4957374;28;20483;-67
2022/01/30 17:14:42;;;;;;;3.13;0.80;;;;;;;;;;4952009;28;21379;-67
2022/01/30 17:17:08;;;;;;;0.67;0.40;;;;;;;;;;4949102;28;20245;-67
2022/01/30 17:19:35;;;;;;;2.33;0.67;;;;;;;;;;4926461;28;20483;-66
2022/01/30 17:22:02;;;;;;;1.40;0.60;;;;;;;;;;4953486;28;20455;-67
2022/01/30 17:24:28;;;;;;;47.77;21.07;;;;;;;;;;4965067;28;20455;-67
2022/01/30 17:26:55;;;;;;;22.67;14.13;;;;;;;;;;4958058;28;20486;-67
2022/01/30 17:29:22;;;;;;;14.40;7.83;;;;;;;;;;4976626;28;20253;-64
2022/01/30 17:31:49;;;;;;;11.00;7.80;;;;;;;;;;4956334;28;20527;-64
2022/01/30 17:34:16;;;;;;;9.53;5.53;;;;;;;;;;4959011;28;20957;-65
2022/01/30 17:36:48;;;;;;;14.33;8.23;;;;;;;;;;4968321;28;20578;-65
2022/01/30 17:39:14;;;;;;;9.03;4.90;;;;;;;;;;4973251;28;20478;-64
2022/01/30 17:41:43;;;;;;;10.30;5.70;;;;;;;;;;4968416;28;20463;-64
2022/01/30 17:44:11;;;;;;;3.50;1.30;;;;;;;;;;4963841;28;20471;-66
2022/01/30 17:46:38;;;;;;;50.90;16.87;;;;;;;;;;4945767;28;20483;-66
2022/01/30 17:49:05;;;;;;;50.63;19.60;;;;;;;;;;4961940;28;20472;-67
2022/01/30 17:51:32;;;;;;;17.57;6.93;;;;;;;;;;4950683;28;20937;-65
2022/01/30 17:53:59;;;;;;;87.70;28.20;;;;;;;;;;4959663;28;20456;-66
2022/01/30 17:56:28;;;;;;;96.77;31.00;;;;;;;;;;4962791;28;21255;-68
2022/01/30 17:58:55;;;;;;;43.27;16.27;;;;;;;;;;4945239;28;20263;-67
2022/01/30 18:01:22;;;;;;;16.83;5.60;;;;;;;;;;4949407;28;20550;-67
2022/01/30 18:03:49;;;;;;;18.77;6.93;;;;;;;;;;4933569;28;20461;-68
2022/01/30 18:06:17;;;;;;;155.03;56.00;;;;;;;;;;4967570;28;20274;-66
2022/01/30 18:08:46;;;;;;;15.07;6.43;;;;;;;;;;4963048;28;20495;-67